Main page
METAR-TAF:

METAR-TAF

Airports :

Bahrain International Airport

Bahrain, Bahrain

latitude: 26-16N, longitude: 050-39E, elevation: 2 m

Current weather observation

The report was made 6 minutes ago, at 04:30 UTC
Wind 12 kt from the West/Northwest
Temperature 14°C
Humidity 72%
Pressure 1022 hPa
Visibility 10 km or more
Few clouds at a height of 3000 ft

METAR: OBBI 210430Z 29012KT 9999 FEW030 14/09 Q1022 NOSIG

Time: 07:36 (04:36 UTC)

Forecast

The report was made 5 hours and 36 minutes ago, at 23:00 UTC
Forecast valid from 21 at 00 UTC to 22 at 06 UTC
Wind 14 kt from the Northwest
Visibility 10 km or more
Scattered clouds at a height of 2500 ft

TAF: OBBI 202300Z 2100/2206 32014KT 9999 SCT025

Weather observations and forecasts of more than 4000 airports (METAR and TAF reports).

The available stations are represented by yellow and red dots on the map.

Hover mouse over dot to see the name of the station.

Then click to see weather observations and forecasts.

To change the map : click on the green buttons with a black cross to zoom in, on the green button with a dash to zoom out, or on the green arrows for adjacent maps.


METAR-TAF: